Etusivu
METAR-TAF:

METAR-TAF

Lentoasemat :

Brive-la-Gaillarde, Ranska

Souillac

Leveyspiiri: 45-02-28N, Pituuspiiri: 001-28-59E, korkeus merenpinnasta: 311 m

Tämänhetkinen sää

Tämä raportti tehtiin 21 minuuttia sitten, kello 18.30 UTC
Tuuli 7 kn pohjoisen/luoteesta
Lämpötila 16°C
Kosteus 42%
Ilmanpaine 1017 hPa
Näkyvyys 10 km tai enemmän
ei pilviä alle 1500 m:ssä eikä cumulonimbus-pilviä

METAR: LFSL 261830Z AUTO 33007KT CAVOK 16/03 Q1017 NOSIG

Aika: 20:51 (18:51 UTC)

Sääennuste

Tämä raportti tehtiin 4 tuntia ja 51 minuuttia sitten, kello 14.00 UTC
Ennuste voimassa 26. päivästä klo 15 UTC - 26. päivään klo 24 UTC
Tuuli 6 kn pohjoisen/luoteesta
Näkyvyys 10 km tai enemmän
ei pilviä alle 1500 m:ssä eikä cumulonimbus-pilviä

TAF: LFSL 261400Z 2615/2624 34006KT CAVOK

Säähavainnot ja -ennusteet yli 4000 lentoasemalta (METAR- ja TAF-raportit).

Käytössä olevat sääasemat on merkitty karttaan keltaisilla ja punaisilla pisteillä.

Aseta hiiri pisteen päälle nähdäksesi sääaseman nimen.

Klikkaa sitten nähdäksesi säähavainnot ja -ennusteet.

Kartan vaihtaminen: klikkaa mustalla rastilla varustettuja vihreitä pisteitä, niin voit zoomata sisään; viivalla varustettua vihreää pistettä, niin voit zoomata ulos tai vihreitä nuolia, niin pääset viereisille kartoille.


METAR-TAF: